sensor_id;sensor_type;location;lat;lon;timestamp;pressure;altitude;pressure_sealevel;temperature;humidity
32735;BME280;19112;51.076;3.706;2024-02-21T00:02:21;102212.25;;;12.67;75.71
32735;BME280;19112;51.076;3.706;2024-02-21T00:04:49;102246.84;;;12.92;76.05
32735;BME280;19112;51.076;3.706;2024-02-21T00:07:18;102176.16;;;12.27;76.12
32735;BME280;19112;51.076;3.706;2024-02-21T00:09:44;101370.69;;;7.43;75.90
32735;BME280;19112;51.076;3.706;2024-02-21T00:12:11;101449.97;;;8.41;75.99
32735;BME280;19112;51.076;3.706;2024-02-21T00:14:40;101757.78;;;10.04;76.93
32735;BME280;19112;51.076;3.706;2024-02-21T00:17:08;102083.47;;;11.61;76.96
32735;BME280;19112;51.076;3.706;2024-02-21T00:19:35;101446.06;;;8.67;76.67
32735;BME280;19112;51.076;3.706;2024-02-21T00:22:01;101450.38;;;8.32;76.02
32735;BME280;19112;51.076;3.706;2024-02-21T00:24:29;101692.88;;;10.17;75.85
32735;BME280;19112;51.076;3.706;2024-02-21T00:26:55;101826.38;;;10.63;76.04
32735;BME280;19112;51.076;3.706;2024-02-21T00:29:20;101630.97;;;9.50;76.10
32735;BME280;19112;51.076;3.706;2024-02-21T00:31:47;101695.72;;;9.86;75.88
32735;BME280;19112;51.076;3.706;2024-02-21T00:34:13;101479.00;;;8.13;76.35
32735;BME280;19112;51.076;3.706;2024-02-21T00:36:39;101634.13;;;9.78;76.61
32735;BME280;19112;51.076;3.706;2024-02-21T00:39:06;101726.31;;;10.04;77.24
32735;BME280;19112;51.076;3.706;2024-02-21T00:41:32;101573.66;;;8.87;76.75
32735;BME280;19112;51.076;3.706;2024-02-21T00:43:58;101702.25;;;9.94;76.81
32735;BME280;19112;51.076;3.706;2024-02-21T00:46:24;101926.94;;;11.14;77.19
32735;BME280;19112;51.076;3.706;2024-02-21T00:48:50;101806.16;;;10.80;77.44
32735;BME280;19112;51.076;3.706;2024-02-21T00:51:16;101388.13;;;8.09;77.40
32735;BME280;19112;51.076;3.706;2024-02-21T00:53:42;101220.84;;;7.41;77.30
32735;BME280;19112;51.076;3.706;2024-02-21T00:56:08;101813.22;;;10.28;77.96
32735;BME280;19112;51.076;3.706;2024-02-21T00:58:34;101537.34;;;9.11;78.30
32735;BME280;19112;51.076;3.706;2024-02-21T01:01:03;101655.69;;;9.90;78.32
32735;BME280;19112;51.076;3.706;2024-02-21T01:03:29;101725.47;;;9.87;78.47
32735;BME280;19112;51.076;3.706;2024-02-21T01:05:55;101142.66;;;6.61;78.53
32735;BME280;19112;51.076;3.706;2024-02-21T01:08:21;101595.22;;;9.52;78.62
32735;BME280;19112;51.076;3.706;2024-02-21T01:10:49;101132.44;;;6.65;78.21
32735;BME280;19112;51.076;3.706;2024-02-21T01:13:14;101466.69;;;8.95;79.09
32735;BME280;19112;51.076;3.706;2024-02-21T01:15:40;101620.72;;;9.72;79.18
32735;BME280;19112;51.076;3.706;2024-02-21T01:18:06;101434.66;;;8.65;79.22
32735;BME280;19112;51.076;3.706;2024-02-21T01:20:32;101173.50;;;7.34;79.59
32735;BME280;19112;51.076;3.706;2024-02-21T01:22:58;101775.09;;;10.34;79.60
32735;BME280;19112;51.076;3.706;2024-02-21T01:25:24;101365.94;;;8.01;79.62
32735;BME280;19112;51.076;3.706;2024-02-21T01:27:51;102145.28;;;12.42;80.34
32735;BME280;19112;51.076;3.706;2024-02-21T01:30:17;101812.78;;;10.54;79.73
32735;BME280;19112;51.076;3.706;2024-02-21T01:32:43;101646.19;;;9.92;80.14
32735;BME280;19112;51.076;3.706;2024-02-21T01:35:09;101222.78;;;7.45;79.78
32735;BME280;19112;51.076;3.706;2024-02-21T01:37:36;101290.47;;;7.91;80.26
32735;BME280;19112;51.076;3.706;2024-02-21T01:40:01;101791.25;;;10.79;80.60
32735;BME280;19112;51.076;3.706;2024-02-21T01:42:29;101916.66;;;10.83;80.68
32735;BME280;19112;51.076;3.706;2024-02-21T01:44:57;102088.28;;;12.44;80.78
32735;BME280;19112;51.076;3.706;2024-02-21T01:47:23;101419.66;;;8.28;80.47
32735;BME280;19112;51.076;3.706;2024-02-21T01:49:49;101746.44;;;10.39;80.96
32735;BME280;19112;51.076;3.706;2024-02-21T01:52:16;101466.59;;;8.93;80.52
32735;BME280;19112;51.076;3.706;2024-02-21T01:54:44;101572.31;;;9.30;80.60
32735;BME280;19112;51.076;3.706;2024-02-21T01:57:12;101097.25;;;6.41;80.29
32735;BME280;19112;51.076;3.706;2024-02-21T01:59:38;101694.59;;;9.81;80.96
32735;BME280;19112;51.076;3.706;2024-02-21T02:02:05;101527.03;;;9.32;80.55
32735;BME280;19112;51.076;3.706;2024-02-21T02:04:31;101989.13;;;12.06;81.11
32735;BME280;19112;51.076;3.706;2024-02-21T02:07:00;101573.00;;;9.43;80.20
32735;BME280;19112;51.076;3.706;2024-02-21T02:09:29;101335.34;;;8.34;79.88
32735;BME280;19112;51.076;3.706;2024-02-21T02:11:55;101645.03;;;10.05;80.23
32735;BME280;19112;51.076;3.706;2024-02-21T02:14:21;101297.72;;;7.96;80.21
32735;BME280;19112;51.076;3.706;2024-02-21T02:16:47;101222.91;;;7.64;80.13
32735;BME280;19112;51.076;3.706;2024-02-21T02:19:15;101520.50;;;9.06;80.39
32735;BME280;19112;51.076;3.706;2024-02-21T02:21:53;102013.75;;;12.26;80.75
32735;BME280;19112;51.076;3.706;2024-02-21T02:24:24;101312.81;;;8.02;80.27
32735;BME280;19112;51.076;3.706;2024-02-21T02:26:56;101179.97;;;7.25;80.06
32735;BME280;19112;51.076;3.706;2024-02-21T02:29:22;101788.03;;;10.67;80.36
32735;BME280;19112;51.076;3.706;2024-02-21T02:31:49;101428.97;;;8.91;80.34
32735;BME280;19112;51.076;3.706;2024-02-21T02:34:18;101343.44;;;8.21;80.49
32735;BME280;19112;51.076;3.706;2024-02-21T02:36:44;101980.97;;;11.63;80.70
32735;BME280;19112;51.076;3.706;2024-02-21T02:39:10;101641.38;;;10.19;80.43
32735;BME280;19112;51.076;3.706;2024-02-21T02:41:38;101616.63;;;10.14;80.62
32735;BME280;19112;51.076;3.706;2024-02-21T02:44:06;101555.44;;;9.96;80.89
32735;BME280;19112;51.076;3.706;2024-02-21T02:46:34;101352.53;;;8.81;80.17
32735;BME280;19112;51.076;3.706;2024-02-21T02:49:06;101682.63;;;10.59;80.71
32735;BME280;19112;51.076;3.706;2024-02-21T02:51:32;101671.66;;;10.68;80.24
32735;BME280;19112;51.076;3.706;2024-02-21T02:53:59;102090.78;;;12.61;79.62
32735;BME280;19112;51.076;3.706;2024-02-21T02:56:26;101668.69;;;10.60;79.56
32735;BME280;19112;51.076;3.706;2024-02-21T02:58:55;101098.75;;;7.37;79.34
32735;BME280;19112;51.076;3.706;2024-02-21T03:01:21;101469.13;;;9.45;80.15
32735;BME280;19112;51.076;3.706;2024-02-21T03:03:47;101358.13;;;8.88;79.69
32735;BME280;19112;51.076;3.706;2024-02-21T03:06:13;101393.19;;;9.10;79.90
32735;BME280;19112;51.076;3.706;2024-02-21T03:08:39;101071.63;;;7.17;79.61
32735;BME280;19112;51.076;3.706;2024-02-21T03:11:05;101389.78;;;9.11;79.67
32735;BME280;19112;51.076;3.706;2024-02-21T03:13:31;101912.22;;;12.13;79.96
32735;BME280;19112;51.076;3.706;2024-02-21T03:15:57;101405.03;;;9.02;79.53
32735;BME280;19112;51.076;3.706;2024-02-21T03:18:23;101278.56;;;8.31;79.51
32735;BME280;19112;51.076;3.706;2024-02-21T03:20:48;101574.81;;;10.17;79.95
32735;BME280;19112;51.076;3.706;2024-02-21T03:23:14;101241.72;;;8.27;79.90
32735;BME280;19112;51.076;3.706;2024-02-21T03:25:40;101871.84;;;11.54;79.61
32735;BME280;19112;51.076;3.706;2024-02-21T03:28:06;101398.88;;;8.83;79.61
32735;BME280;19112;51.076;3.706;2024-02-21T03:30:35;101178.00;;;7.89;79.74
32735;BME280;19112;51.076;3.706;2024-02-21T03:33:02;101078.84;;;7.56;79.49
32735;BME280;19112;51.076;3.706;2024-02-21T03:35:29;101893.88;;;12.15;80.01
32735;BME280;19112;51.076;3.706;2024-02-21T03:37:55;101937.81;;;12.16;79.73
32735;BME280;19112;51.076;3.706;2024-02-21T03:40:21;101404.03;;;9.00;79.14
32735;BME280;19112;51.076;3.706;2024-02-21T03:42:47;101447.00;;;9.21;79.75
32735;BME280;19112;51.076;3.706;2024-02-21T03:45:13;101135.19;;;7.51;79.14
32735;BME280;19112;51.076;3.706;2024-02-21T03:47:40;101513.16;;;9.70;78.90
32735;BME280;19112;51.076;3.706;2024-02-21T03:50:07;101476.44;;;9.53;78.90
32735;BME280;19112;51.076;3.706;2024-02-21T03:52:32;101944.19;;;12.21;79.14
32735;BME280;19112;51.076;3.706;2024-02-21T03:54:58;101664.47;;;10.64;78.61
32735;BME280;19112;51.076;3.706;2024-02-21T03:57:24;101369.13;;;8.81;78.79
32735;BME280;19112;51.076;3.706;2024-02-21T03:59:51;101501.25;;;9.96;78.76
32735;BME280;19112;51.076;3.706;2024-02-21T04:02:18;101332.34;;;8.60;79.00
32735;BME280;19112;51.076;3.706;2024-02-21T04:04:47;101174.28;;;7.50;78.78
32735;BME280;19112;51.076;3.706;2024-02-21T04:07:14;101140.09;;;7.99;78.61
32735;BME280;19112;51.076;3.706;2024-02-21T04:09:41;101814.41;;;11.44;79.01
32735;BME280;19112;51.076;3.706;2024-02-21T04:12:08;101276.19;;;8.36;78.58
32735;BME280;19112;51.076;3.706;2024-02-21T04:14:36;101122.66;;;7.80;78.67
32735;BME280;19112;51.076;3.706;2024-02-21T04:17:03;101833.44;;;11.77;79.16
32735;BME280;19112;51.076;3.706;2024-02-21T04:19:31;101647.00;;;10.84;79.00
32735;BME280;19112;51.076;3.706;2024-02-21T04:21:58;101014.22;;;6.82;78.45
32735;BME280;19112;51.076;3.706;2024-02-21T04:24:25;101796.91;;;11.45;78.47
32735;BME280;19112;51.076;3.706;2024-02-21T04:26:52;101479.41;;;9.59;78.38
32735;BME280;19112;51.076;3.706;2024-02-21T04:29:18;101678.03;;;10.92;78.85
32735;BME280;19112;51.076;3.706;2024-02-21T04:31:44;101967.91;;;12.42;79.21
32735;BME280;19112;51.076;3.706;2024-02-21T04:34:14;101514.38;;;9.79;79.04
32735;BME280;19112;51.076;3.706;2024-02-21T04:36:40;100983.69;;;6.98;78.84
32735;BME280;19112;51.076;3.706;2024-02-21T04:39:07;101310.97;;;8.69;78.98
32735;BME280;19112;51.076;3.706;2024-02-21T04:41:33;101098.31;;;7.63;78.71
32735;BME280;19112;51.076;3.706;2024-02-21T04:43:59;101682.31;;;10.90;79.30
32735;BME280;19112;51.076;3.706;2024-02-21T04:46:25;101526.47;;;10.12;79.75
32735;BME280;19112;51.076;3.706;2024-02-21T04:48:53;101777.91;;;11.50;79.59
32735;BME280;19112;51.076;3.706;2024-02-21T04:51:22;101358.31;;;8.74;79.41
32735;BME280;19112;51.076;3.706;2024-02-21T04:53:49;101098.44;;;7.66;79.32
32735;BME280;19112;51.076;3.706;2024-02-21T04:56:15;100961.81;;;6.44;78.78
32735;BME280;19112;51.076;3.706;2024-02-21T04:58:42;101201.16;;;8.53;79.69
32735;BME280;19112;51.076;3.706;2024-02-21T05:01:09;101092.03;;;7.95;78.98
32735;BME280;19112;51.076;3.706;2024-02-21T05:03:35;101065.38;;;7.84;78.88
32735;BME280;19112;51.076;3.706;2024-02-21T05:06:01;101608.34;;;10.81;79.37
32735;BME280;19112;51.076;3.706;2024-02-21T05:08:26;101446.81;;;9.54;79.29
32735;BME280;19112;51.076;3.706;2024-02-21T05:10:53;101083.97;;;7.91;79.43
32735;BME280;19112;51.076;3.706;2024-02-21T05:13:20;101558.59;;;10.65;79.59
32735;BME280;19112;51.076;3.706;2024-02-21T05:15:46;101365.75;;;9.58;79.63
32735;BME280;19112;51.076;3.706;2024-02-21T05:18:12;101030.78;;;7.35;79.58
32735;BME280;19112;51.076;3.706;2024-02-21T05:20:37;101103.91;;;7.88;79.44
32735;BME280;19112;51.076;3.706;2024-02-21T05:23:03;101060.47;;;7.73;79.61
32735;BME280;19112;51.076;3.706;2024-02-21T05:25:29;100945.34;;;6.97;79.16
32735;BME280;19112;51.076;3.706;2024-02-21T05:27:55;101693.94;;;11.15;79.69
32735;BME280;19112;51.076;3.706;2024-02-21T05:30:21;101840.16;;;12.30;79.78
32735;BME280;19112;51.076;3.706;2024-02-21T05:32:47;101604.59;;;10.37;79.63
32735;BME280;19112;51.076;3.706;2024-02-21T05:35:13;101478.97;;;10.45;79.20
32735;BME280;19112;51.076;3.706;2024-02-21T05:37:38;101598.38;;;10.93;79.59
32735;BME280;19112;51.076;3.706;2024-02-21T05:40:05;101724.97;;;11.83;79.61
32735;BME280;19112;51.076;3.706;2024-02-21T05:42:31;101892.63;;;12.26;79.60
32735;BME280;19112;51.076;3.706;2024-02-21T05:44:57;100968.28;;;7.57;79.30
32735;BME280;19112;51.076;3.706;2024-02-21T05:47:23;101425.25;;;10.17;79.62
32735;BME280;19112;51.076;3.706;2024-02-21T05:49:49;101775.22;;;12.31;79.41
32735;BME280;19112;51.076;3.706;2024-02-21T05:52:19;100891.56;;;7.18;78.86
32735;BME280;19112;51.076;3.706;2024-02-21T05:54:44;100985.19;;;7.46;79.06
32735;BME280;19112;51.076;3.706;2024-02-21T05:57:10;101623.25;;;11.42;79.33
32735;BME280;19112;51.076;3.706;2024-02-21T05:59:39;101771.41;;;12.03;79.41
32735;BME280;19112;51.076;3.706;2024-02-21T06:02:07;101768.91;;;12.27;79.53
32735;BME280;19112;51.076;3.706;2024-02-21T06:04:34;101098.53;;;8.40;79.45
32735;BME280;19112;51.076;3.706;2024-02-21T06:07:01;101373.53;;;10.15;79.55
32735;BME280;19112;51.076;3.706;2024-02-21T06:09:27;101061.56;;;7.96;78.45
32735;BME280;19112;51.076;3.706;2024-02-21T06:11:54;101810.78;;;12.42;79.22
32735;BME280;19112;51.076;3.706;2024-02-21T06:14:23;100897.03;;;7.42;78.77
32735;BME280;19112;51.076;3.706;2024-02-21T06:16:52;101652.72;;;11.55;79.39
32735;BME280;19112;51.076;3.706;2024-02-21T06:19:21;101335.13;;;9.57;78.92
32735;BME280;19112;51.076;3.706;2024-02-21T06:21:47;101307.19;;;9.58;79.07
32735;BME280;19112;51.076;3.706;2024-02-21T06:24:13;101408.56;;;9.96;79.15
32735;BME280;19112;51.076;3.706;2024-02-21T06:26:40;101795.56;;;12.14;79.63
32735;BME280;19112;51.076;3.706;2024-02-21T06:29:06;101435.72;;;9.79;79.22
32735;BME280;19112;51.076;3.706;2024-02-21T06:31:32;101280.59;;;9.49;79.14
32735;BME280;19112;51.076;3.706;2024-02-21T06:33:58;101807.56;;;12.28;79.50
32735;BME280;19112;51.076;3.706;2024-02-21T06:36:27;101351.75;;;9.58;78.95
32735;BME280;19112;51.076;3.706;2024-02-21T06:38:53;101469.97;;;10.80;79.03
32735;BME280;19112;51.076;3.706;2024-02-21T06:41:21;100928.16;;;7.75;78.75
32735;BME280;19112;51.076;3.706;2024-02-21T06:43:48;101290.78;;;9.62;78.92
32735;BME280;19112;51.076;3.706;2024-02-21T06:46:27;101512.19;;;11.06;79.09
32735;BME280;19112;51.076;3.706;2024-02-21T06:49:01;101163.44;;;8.86;78.99
32735;BME280;19112;51.076;3.706;2024-02-21T06:51:32;101429.19;;;10.27;78.69
32735;BME280;19112;51.076;3.706;2024-02-21T06:54:00;100693.28;;;6.63;78.65
32735;BME280;19112;51.076;3.706;2024-02-21T06:56:26;100821.78;;;7.14;78.37
32735;BME280;19112;51.076;3.706;2024-02-21T06:58:58;101638.13;;;11.62;78.69
32735;BME280;19112;51.076;3.706;2024-02-21T07:01:25;100968.81;;;8.07;78.20
32735;BME280;19112;51.076;3.706;2024-02-21T07:03:52;101798.53;;;12.43;78.61
32735;BME280;19112;51.076;3.706;2024-02-21T07:06:20;101556.28;;;11.54;78.48
32735;BME280;19112;51.076;3.706;2024-02-21T07:08:47;101553.59;;;10.90;78.83
32735;BME280;19112;51.076;3.706;2024-02-21T07:11:13;101127.34;;;8.79;78.67
32735;BME280;19112;51.076;3.706;2024-02-21T07:13:39;101484.25;;;11.08;78.86
32735;BME280;19112;51.076;3.706;2024-02-21T07:16:06;101644.78;;;11.96;78.77
32735;BME280;19112;51.076;3.706;2024-02-21T07:18:32;101743.63;;;12.31;79.04
32735;BME280;19112;51.076;3.706;2024-02-21T07:20:58;101017.25;;;8.18;78.48
32735;BME280;19112;51.076;3.706;2024-02-21T07:23:24;101058.25;;;8.76;78.28
32735;BME280;19112;51.076;3.706;2024-02-21T07:25:53;100931.66;;;8.14;78.17
32735;BME280;19112;51.076;3.706;2024-02-21T07:28:19;100705.03;;;6.92;78.09
32735;BME280;19112;51.076;3.706;2024-02-21T07:30:45;101716.88;;;12.43;78.65
32735;BME280;19112;51.076;3.706;2024-02-21T07:33:10;100943.50;;;7.86;77.86
32735;BME280;19112;51.076;3.706;2024-02-21T07:35:38;100882.06;;;7.96;78.22
32735;BME280;19112;51.076;3.706;2024-02-21T07:38:06;100941.56;;;8.02;77.94
32735;BME280;19112;51.076;3.706;2024-02-21T07:40:32;101348.44;;;10.41;77.88
32735;BME280;19112;51.076;3.706;2024-02-21T07:43:01;101183.38;;;9.63;77.66
32735;BME280;19112;51.076;3.706;2024-02-21T07:45:28;100939.22;;;8.08;77.54
32735;BME280;19112;51.076;3.706;2024-02-21T07:47:54;101060.44;;;8.66;77.06
32735;BME280;19112;51.076;3.706;2024-02-21T07:50:20;100835.94;;;7.58;77.34
32735;BME280;19112;51.076;3.706;2024-02-21T07:52:47;101692.75;;;12.54;77.90
32735;BME280;19112;51.076;3.706;2024-02-21T07:55:13;101336.84;;;10.79;77.87
32735;BME280;19112;51.076;3.706;2024-02-21T07:57:39;101705.38;;;12.63;77.79
32735;BME280;19112;51.076;3.706;2024-02-21T08:00:07;100839.94;;;8.30;76.89
32735;BME280;19112;51.076;3.706;2024-02-21T08:02:37;100888.25;;;8.58;76.95
32735;BME280;19112;51.076;3.706;2024-02-21T08:05:03;101635.66;;;12.77;77.51
32735;BME280;19112;51.076;3.706;2024-02-21T08:07:32;100816.56;;;8.33;76.93
32735;BME280;19112;51.076;3.706;2024-02-21T08:09:59;101567.22;;;12.09;77.23
32735;BME280;19112;51.076;3.706;2024-02-21T08:12:25;101671.41;;;12.71;76.95
32735;BME280;19112;51.076;3.706;2024-02-21T08:14:52;100887.03;;;8.30;76.72
32735;BME280;19112;51.076;3.706;2024-02-21T08:17:20;101370.19;;;11.71;76.84
32735;BME280;19112;51.076;3.706;2024-02-21T08:19:45;101068.59;;;9.77;76.70
32735;BME280;19112;51.076;3.706;2024-02-21T08:22:11;101107.47;;;10.10;76.28
32735;BME280;19112;51.076;3.706;2024-02-21T08:24:38;100703.03;;;8.07;76.08
32735;BME280;19112;51.076;3.706;2024-02-21T08:27:04;101062.75;;;9.84;76.19
32735;BME280;19112;51.076;3.706;2024-02-21T08:29:32;101560.19;;;12.79;75.94
32735;BME280;19112;51.076;3.706;2024-02-21T08:31:57;101014.22;;;9.51;75.45
32735;BME280;19112;51.076;3.706;2024-02-21T08:34:23;100748.81;;;8.19;75.37
32735;BME280;19112;51.076;3.706;2024-02-21T08:36:49;101170.81;;;10.64;75.44
32735;BME280;19112;51.076;3.706;2024-02-21T08:39:15;101047.25;;;9.90;75.55
32735;BME280;19112;51.076;3.706;2024-02-21T08:41:47;100895.06;;;9.18;74.72
32735;BME280;19112;51.076;3.706;2024-02-21T08:44:13;101570.94;;;13.35;74.87
32735;BME280;19112;51.076;3.706;2024-02-21T08:46:39;101559.94;;;13.21;74.55
32735;BME280;19112;51.076;3.706;2024-02-21T08:49:10;101265.44;;;11.60;74.19
32735;BME280;19112;51.076;3.706;2024-02-21T08:51:47;101534.66;;;13.28;74.40
32735;BME280;19112;51.076;3.706;2024-02-21T08:54:15;101121.66;;;10.60;74.64
32735;BME280;19112;51.076;3.706;2024-02-21T08:56:44;100931.94;;;9.45;74.17
32735;BME280;19112;51.076;3.706;2024-02-21T08:59:12;101172.25;;;11.26;74.18
32735;BME280;19112;51.076;3.706;2024-02-21T09:01:41;101574.94;;;13.24;74.48
32735;BME280;19112;51.076;3.706;2024-02-21T09:04:08;100904.81;;;9.67;74.26
32735;BME280;19112;51.076;3.706;2024-02-21T09:06:34;101271.16;;;11.72;73.95
32735;BME280;19112;51.076;3.706;2024-02-21T09:09:06;101210.19;;;11.58;73.62
32735;BME280;19112;51.076;3.706;2024-02-21T09:11:34;101419.31;;;12.95;73.44
32735;BME280;19112;51.076;3.706;2024-02-21T09:14:03;101473.84;;;13.50;73.49
32735;BME280;19112;51.076;3.706;2024-02-21T09:16:33;100892.94;;;10.25;72.09
32735;BME280;19112;51.076;3.706;2024-02-21T09:19:02;101177.56;;;11.78;71.56
32735;BME280;19112;51.076;3.706;2024-02-21T09:21:30;101273.41;;;12.65;72.11
32735;BME280;19112;51.076;3.706;2024-02-21T09:23:56;100802.41;;;9.87;71.87
32735;BME280;19112;51.076;3.706;2024-02-21T09:26:25;101263.53;;;12.30;72.33
32735;BME280;19112;51.076;3.706;2024-02-21T09:28:51;101176.69;;;11.78;72.14
32735;BME280;19112;51.076;3.706;2024-02-21T09:31:18;100795.44;;;9.87;71.45
32735;BME280;19112;51.076;3.706;2024-02-21T09:33:45;100731.44;;;9.09;71.08
32735;BME280;19112;51.076;3.706;2024-02-21T09:36:11;100806.53;;;10.06;71.03
32735;BME280;19112;51.076;3.706;2024-02-21T09:38:40;100704.03;;;9.23;71.60
32735;BME280;19112;51.076;3.706;2024-02-21T09:41:26;101482.97;;;13.61;71.49
32735;BME280;19112;51.076;3.706;2024-02-21T09:43:55;100867.84;;;10.33;71.35
32735;BME280;19112;51.076;3.706;2024-02-21T09:49:35;100988.22;;;11.24;71.91
32735;BME280;19112;51.076;3.706;2024-02-21T09:52:07;100698.34;;;9.35;71.77
32735;BME280;19112;51.076;3.706;2024-02-21T09:54:36;100820.41;;;10.27;71.01
32735;BME280;19112;51.076;3.706;2024-02-21T09:57:03;101129.34;;;12.05;69.86
32735;BME280;19112;51.076;3.706;2024-02-21T09:59:32;100651.06;;;9.57;70.16
32735;BME280;19112;51.076;3.706;2024-02-21T10:01:59;100749.25;;;9.67;70.95
32735;BME280;19112;51.076;3.706;2024-02-21T10:04:29;100920.59;;;11.19;70.98
32735;BME280;19112;51.076;3.706;2024-02-21T10:06:57;100882.16;;;11.22;70.49
32735;BME280;19112;51.076;3.706;2024-02-21T10:09:27;101295.19;;;12.88;70.22
32735;BME280;19112;51.076;3.706;2024-02-21T10:11:56;100568.44;;;9.41;70.52
32735;BME280;19112;51.076;3.706;2024-02-21T10:14:32;100957.03;;;11.64;70.10
32735;BME280;19112;51.076;3.706;2024-02-21T10:17:00;100677.56;;;9.65;69.96
32735;BME280;19112;51.076;3.706;2024-02-21T10:19:29;100571.41;;;9.52;69.92
32735;BME280;19112;51.076;3.706;2024-02-21T10:22:09;100763.13;;;10.68;69.68
32735;BME280;19112;51.076;3.706;2024-02-21T10:24:36;100454.75;;;8.82;69.56
32735;BME280;19112;51.076;3.706;2024-02-21T10:27:10;100643.00;;;10.04;69.34
32735;BME280;19112;51.076;3.706;2024-02-21T10:29:38;100521.81;;;9.31;68.67
32735;BME280;19112;51.076;3.706;2024-02-21T10:32:12;100677.13;;;10.31;69.07
32735;BME280;19112;51.076;3.706;2024-02-21T10:34:42;100882.81;;;11.74;68.96
32735;BME280;19112;51.076;3.706;2024-02-21T10:37:10;101162.53;;;13.17;69.30
32735;BME280;19112;51.076;3.706;2024-02-21T10:39:40;100772.25;;;10.79;69.16
32735;BME280;19112;51.076;3.706;2024-02-21T10:42:11;100995.13;;;12.35;69.64
32735;BME280;19112;51.076;3.706;2024-02-21T10:44:39;101340.28;;;14.17;69.49
32735;BME280;19112;51.076;3.706;2024-02-21T10:47:11;100752.91;;;11.06;69.22
32735;BME280;19112;51.076;3.706;2024-02-21T10:49:40;100784.50;;;11.37;68.85
32735;BME280;19112;51.076;3.706;2024-02-21T10:55:04;100865.16;;;11.70;68.95
32735;BME280;19112;51.076;3.706;2024-02-21T10:57:35;101200.44;;;13.85;68.86
32735;BME280;19112;51.076;3.706;2024-02-21T11:00:04;100867.41;;;11.86;68.62
32735;BME280;19112;51.076;3.706;2024-02-21T11:02:34;101107.44;;;12.95;69.20
32735;BME280;19112;51.076;3.706;2024-02-21T11:05:02;101311.13;;;14.12;68.92
32735;BME280;19112;51.076;3.706;2024-02-21T11:07:29;100844.06;;;11.67;68.78
32735;BME280;19112;51.076;3.706;2024-02-21T11:09:58;101301.16;;;14.02;69.39
32735;BME280;19112;51.076;3.706;2024-02-21T11:12:27;100364.28;;;8.90;68.74
32735;BME280;19112;51.076;3.706;2024-02-21T11:15:03;100736.41;;;10.53;69.09
32735;BME280;19112;51.076;3.706;2024-02-21T11:17:34;100395.84;;;8.43;68.81
32735;BME280;19112;51.076;3.706;2024-02-21T11:20:13;100656.59;;;10.19;69.42
32735;BME280;19112;51.076;3.706;2024-02-21T11:22:45;100357.13;;;8.58;69.69
32735;BME280;19112;51.076;3.706;2024-02-21T11:25:21;100683.56;;;10.70;70.25
32735;BME280;19112;51.076;3.706;2024-02-21T11:27:48;100808.81;;;11.30;70.10
32735;BME280;19112;51.076;3.706;2024-02-21T11:30:14;100503.22;;;9.49;69.40
32735;BME280;19112;51.076;3.706;2024-02-21T11:32:42;100665.09;;;10.66;69.18
32735;BME280;19112;51.076;3.706;2024-02-21T11:35:19;100810.06;;;11.74;69.45
32735;BME280;19112;51.076;3.706;2024-02-21T11:37:46;100762.19;;;11.54;69.47
32735;BME280;19112;51.076;3.706;2024-02-21T11:40:12;100612.81;;;10.75;69.18
32735;BME280;19112;51.076;3.706;2024-02-21T11:42:38;100875.44;;;12.22;68.87
32735;BME280;19112;51.076;3.706;2024-02-21T11:45:06;101100.53;;;13.66;69.06
32735;BME280;19112;51.076;3.706;2024-02-21T11:47:33;101145.66;;;13.77;68.96
32735;BME280;19112;51.076;3.706;2024-02-21T11:50:04;100775.78;;;11.40;68.48
32735;BME280;19112;51.076;3.706;2024-02-21T11:52:33;100381.06;;;9.26;68.64
32735;BME280;19112;51.076;3.706;2024-02-21T11:54:59;100364.03;;;9.38;69.07
32735;BME280;19112;51.076;3.706;2024-02-21T11:57:31;100773.69;;;11.58;68.91
32735;BME280;19112;51.076;3.706;2024-02-21T11:59:59;100869.69;;;12.04;68.76
32735;BME280;19112;51.076;3.706;2024-02-21T12:02:27;101227.66;;;13.84;68.95
32735;BME280;19112;51.076;3.706;2024-02-21T12:04:54;100391.41;;;9.21;68.23
32735;BME280;19112;51.076;3.706;2024-02-21T12:07:21;100646.47;;;10.58;68.80
32735;BME280;19112;51.076;3.706;2024-02-21T12:09:48;100708.25;;;11.06;68.59
32735;BME280;19112;51.076;3.706;2024-02-21T12:12:20;100271.75;;;9.18;68.03
32735;BME280;19112;51.076;3.706;2024-02-21T12:14:46;100411.50;;;9.49;68.00
32735;BME280;19112;51.076;3.706;2024-02-21T12:17:12;100735.91;;;11.54;68.13
32735;BME280;19112;51.076;3.706;2024-02-21T12:19:38;100556.84;;;10.76;68.53
32735;BME280;19112;51.076;3.706;2024-02-21T12:22:04;100771.28;;;12.32;68.41
32735;BME280;19112;51.076;3.706;2024-02-21T12:24:34;100736.25;;;12.00;68.05
32735;BME280;19112;51.076;3.706;2024-02-21T12:27:02;100234.16;;;8.86;67.77
32735;BME280;19112;51.076;3.706;2024-02-21T12:29:30;101012.09;;;13.83;68.18
32735;BME280;19112;51.076;3.706;2024-02-21T12:31:57;100451.59;;;10.67;67.83
32735;BME280;19112;51.076;3.706;2024-02-21T12:34:26;100177.44;;;8.87;67.53
32735;BME280;19112;51.076;3.706;2024-02-21T12:36:53;100319.69;;;10.08;67.64
32735;BME280;19112;51.076;3.706;2024-02-21T12:39:20;100602.41;;;11.77;67.04
32735;BME280;19112;51.076;3.706;2024-02-21T12:41:46;101036.16;;;14.38;66.96
32735;BME280;19112;51.076;3.706;2024-02-21T12:44:12;100571.06;;;11.87;66.69
32735;BME280;19112;51.076;3.706;2024-02-21T12:46:39;100884.78;;;13.15;67.01
32735;BME280;19112;51.076;3.706;2024-02-21T12:49:11;100308.50;;;10.15;66.55
32735;BME280;19112;51.076;3.706;2024-02-21T12:51:39;100124.94;;;9.45;66.57
32735;BME280;19112;51.076;3.706;2024-02-21T12:54:06;100023.50;;;8.72;66.76
32735;BME280;19112;51.076;3.706;2024-02-21T12:56:35;100999.25;;;14.41;66.96
32735;BME280;19112;51.076;3.706;2024-02-21T12:59:02;100504.53;;;11.54;66.66
32735;BME280;19112;51.076;3.706;2024-02-21T13:01:29;100694.78;;;12.64;67.35
32735;BME280;19112;51.076;3.706;2024-02-21T13:03:55;100278.91;;;10.20;67.10